sensor_id;sensor_type;location;lat;lon;timestamp;pressure;altitude;pressure_sealevel;temperature;humidity
7768;BME280;3928;42.626;23.382;2023-07-29T00:02:04;94071.50;;;22.80;45.39
7768;BME280;3928;42.626;23.382;2023-07-29T00:04:32;94071.09;;;22.73;45.40
7768;BME280;3928;42.626;23.382;2023-07-29T00:06:59;94075.59;;;22.71;45.27
7768;BME280;3928;42.626;23.382;2023-07-29T00:09:26;94073.06;;;22.69;45.63
7768;BME280;3928;42.626;23.382;2023-07-29T00:11:52;94063.88;;;22.51;46.29
7768;BME280;3928;42.626;23.382;2023-07-29T00:14:19;94080.38;;;22.39;46.66
7768;BME280;3928;42.626;23.382;2023-07-29T00:16:46;94083.66;;;22.15;47.57
7768;BME280;3928;42.626;23.382;2023-07-29T00:19:13;94075.50;;;21.93;48.42
7768;BME280;3928;42.626;23.382;2023-07-29T00:21:41;94050.59;;;21.60;48.82
7768;BME280;3928;42.626;23.382;2023-07-29T00:24:08;94072.38;;;21.74;49.23
7768;BME280;3928;42.626;23.382;2023-07-29T00:26:34;94074.44;;;21.69;49.50
7768;BME280;3928;42.626;23.382;2023-07-29T00:29:01;94068.66;;;21.64;49.57
7768;BME280;3928;42.626;23.382;2023-07-29T00:31:28;94071.28;;;21.64;49.79
7768;BME280;3928;42.626;23.382;2023-07-29T00:33:55;94066.06;;;21.64;50.39
7768;BME280;3928;42.626;23.382;2023-07-29T00:36:23;94066.22;;;21.75;50.36
7768;BME280;3928;42.626;23.382;2023-07-29T00:38:52;94067.41;;;21.83;50.70
7768;BME280;3928;42.626;23.382;2023-07-29T00:41:22;94075.38;;;21.95;50.75
7768;BME280;3928;42.626;23.382;2023-07-29T00:43:50;94051.31;;;21.89;50.61
7768;BME280;3928;42.626;23.382;2023-07-29T00:46:17;94068.56;;;22.06;50.88
7768;BME280;3928;42.626;23.382;2023-07-29T00:48:43;94060.63;;;22.08;50.49
7768;BME280;3928;42.626;23.382;2023-07-29T00:51:11;94062.28;;;22.09;50.33
7768;BME280;3928;42.626;23.382;2023-07-29T00:53:38;94054.84;;;22.03;49.88
7768;BME280;3928;42.626;23.382;2023-07-29T00:56:06;94065.00;;;22.07;49.44
7768;BME280;3928;42.626;23.382;2023-07-29T00:58:34;94061.63;;;22.05;49.69
7768;BME280;3928;42.626;23.382;2023-07-29T01:01:00;94062.19;;;21.83;49.95
7768;BME280;3928;42.626;23.382;2023-07-29T01:03:27;94048.19;;;21.57;50.98
7768;BME280;3928;42.626;23.382;2023-07-29T01:06:04;94058.41;;;21.60;51.38
7768;BME280;3928;42.626;23.382;2023-07-29T01:08:41;94053.00;;;21.64;52.02
7768;BME280;3928;42.626;23.382;2023-07-29T01:11:18;93982.22;;;21.27;52.06
7768;BME280;3928;42.626;23.382;2023-07-29T01:13:50;94053.34;;;21.72;51.67
7768;BME280;3928;42.626;23.382;2023-07-29T01:16:23;94057.09;;;21.68;51.06
7768;BME280;3928;42.626;23.382;2023-07-29T01:18:53;94056.38;;;21.51;51.22
7768;BME280;3928;42.626;23.382;2023-07-29T01:21:22;94051.28;;;21.36;51.55
7768;BME280;3928;42.626;23.382;2023-07-29T01:23:53;94058.28;;;21.21;52.00
7768;BME280;3928;42.626;23.382;2023-07-29T01:26:24;94058.19;;;21.08;52.75
7768;BME280;3928;42.626;23.382;2023-07-29T01:28:51;94060.34;;;21.01;53.01
7768;BME280;3928;42.626;23.382;2023-07-29T01:31:23;94044.09;;;20.82;53.14
7768;BME280;3928;42.626;23.382;2023-07-29T01:33:57;94059.78;;;20.96;53.04
7768;BME280;3928;42.626;23.382;2023-07-29T01:36:27;94064.41;;;21.06;53.74
7768;BME280;3928;42.626;23.382;2023-07-29T01:38:57;94057.50;;;21.19;53.37
7768;BME280;3928;42.626;23.382;2023-07-29T01:41:25;94048.22;;;21.29;53.36
7768;BME280;3928;42.626;23.382;2023-07-29T01:43:52;94036.66;;;21.33;53.08
7768;BME280;3928;42.626;23.382;2023-07-29T01:46:20;94031.44;;;21.33;53.02
7768;BME280;3928;42.626;23.382;2023-07-29T01:48:46;94052.66;;;21.55;52.31
7768;BME280;3928;42.626;23.382;2023-07-29T01:51:13;94053.41;;;21.57;52.05
7768;BME280;3928;42.626;23.382;2023-07-29T01:53:40;94057.28;;;21.65;51.82
7768;BME280;3928;42.626;23.382;2023-07-29T01:56:08;94043.06;;;21.56;51.51
7768;BME280;3928;42.626;23.382;2023-07-29T01:58:35;94053.72;;;21.66;50.78
7768;BME280;3928;42.626;23.382;2023-07-29T02:01:02;94047.03;;;21.62;51.21
7768;BME280;3928;42.626;23.382;2023-07-29T02:03:29;94054.78;;;21.63;51.00
7768;BME280;3928;42.626;23.382;2023-07-29T02:05:55;94061.34;;;21.56;51.46
7768;BME280;3928;42.626;23.382;2023-07-29T02:08:22;94047.13;;;21.33;51.91
7768;BME280;3928;42.626;23.382;2023-07-29T02:10:49;94054.63;;;20.95;53.60
7768;BME280;3928;42.626;23.382;2023-07-29T02:13:17;94062.94;;;20.73;54.72
7768;BME280;3928;42.626;23.382;2023-07-29T02:15:44;94062.69;;;20.48;55.88
7768;BME280;3928;42.626;23.382;2023-07-29T02:18:11;94065.53;;;20.29;56.65
7768;BME280;3928;42.626;23.382;2023-07-29T02:20:38;94060.44;;;20.11;57.22
7768;BME280;3928;42.626;23.382;2023-07-29T02:23:04;94071.78;;;19.80;58.91
7768;BME280;3928;42.626;23.382;2023-07-29T02:25:31;94059.84;;;19.61;59.22
7768;BME280;3928;42.626;23.382;2023-07-29T02:28:01;94067.72;;;19.75;59.39
7768;BME280;3928;42.626;23.382;2023-07-29T02:30:30;94072.28;;;19.71;59.62
7768;BME280;3928;42.626;23.382;2023-07-29T02:32:57;94074.31;;;19.66;59.74
7768;BME280;3928;42.626;23.382;2023-07-29T02:35:25;94068.69;;;19.58;60.12
7768;BME280;3928;42.626;23.382;2023-07-29T02:37:51;94062.25;;;19.48;60.19
7768;BME280;3928;42.626;23.382;2023-07-29T02:40:18;94065.03;;;19.45;60.27
7768;BME280;3928;42.626;23.382;2023-07-29T02:42:46;94066.38;;;19.36;60.51
7768;BME280;3928;42.626;23.382;2023-07-29T02:45:13;94050.16;;;19.15;61.32
7768;BME280;3928;42.626;23.382;2023-07-29T02:47:41;94068.81;;;19.23;61.28
7768;BME280;3928;42.626;23.382;2023-07-29T02:50:08;94067.03;;;19.24;61.38
7768;BME280;3928;42.626;23.382;2023-07-29T02:52:35;94058.91;;;19.30;61.27
7768;BME280;3928;42.626;23.382;2023-07-29T02:55:02;94061.75;;;19.41;60.74
7768;BME280;3928;42.626;23.382;2023-07-29T02:57:29;94041.38;;;19.34;60.35
7768;BME280;3928;42.626;23.382;2023-07-29T02:59:56;94057.63;;;19.53;60.17
7768;BME280;3928;42.626;23.382;2023-07-29T03:02:23;94063.38;;;19.60;59.76
7768;BME280;3928;42.626;23.382;2023-07-29T03:04:51;94067.25;;;19.68;59.88
7768;BME280;3928;42.626;23.382;2023-07-29T03:07:17;94070.25;;;19.76;59.92
7768;BME280;3928;42.626;23.382;2023-07-29T03:09:45;94072.94;;;19.91;60.21
7768;BME280;3928;42.626;23.382;2023-07-29T03:12:12;94074.94;;;20.01;59.07
7768;BME280;3928;42.626;23.382;2023-07-29T03:14:39;94075.91;;;20.14;58.53
7768;BME280;3928;42.626;23.382;2023-07-29T03:17:06;94086.47;;;20.27;57.50
7768;BME280;3928;42.626;23.382;2023-07-29T03:19:33;94078.06;;;20.22;57.19
7768;BME280;3928;42.626;23.382;2023-07-29T03:22:02;94083.31;;;20.06;57.91
7768;BME280;3928;42.626;23.382;2023-07-29T03:24:28;94086.84;;;20.05;58.13
7768;BME280;3928;42.626;23.382;2023-07-29T03:26:55;94080.63;;;20.08;58.17
7768;BME280;3928;42.626;23.382;2023-07-29T03:29:22;94095.81;;;20.15;58.01
7768;BME280;3928;42.626;23.382;2023-07-29T03:31:49;94083.28;;;20.22;57.74
7768;BME280;3928;42.626;23.382;2023-07-29T03:34:15;94083.63;;;20.16;57.63
7768;BME280;3928;42.626;23.382;2023-07-29T03:36:42;94092.19;;;19.72;59.86
7768;BME280;3928;42.626;23.382;2023-07-29T03:39:12;94092.22;;;19.23;62.35
7768;BME280;3928;42.626;23.382;2023-07-29T03:41:39;94090.72;;;19.19;63.33
7768;BME280;3928;42.626;23.382;2023-07-29T03:44:06;94073.00;;;19.10;63.53
7768;BME280;3928;42.626;23.382;2023-07-29T03:46:33;94069.59;;;18.92;64.50
7768;BME280;3928;42.626;23.382;2023-07-29T03:48:59;94092.28;;;19.06;64.37
7768;BME280;3928;42.626;23.382;2023-07-29T03:51:26;94088.97;;;18.87;65.25
7768;BME280;3928;42.626;23.382;2023-07-29T03:53:53;94085.91;;;18.79;65.82
7768;BME280;3928;42.626;23.382;2023-07-29T03:56:21;94080.53;;;18.82;65.98
7768;BME280;3928;42.626;23.382;2023-07-29T03:58:48;94076.97;;;18.84;65.90
7768;BME280;3928;42.626;23.382;2023-07-29T04:01:14;94086.31;;;19.04;65.50
7768;BME280;3928;42.626;23.382;2023-07-29T04:03:41;94061.41;;;19.00;65.27
7768;BME280;3928;42.626;23.382;2023-07-29T04:06:08;94087.44;;;19.32;65.17
7768;BME280;3928;42.626;23.382;2023-07-29T04:08:35;94087.78;;;19.41;64.80
7768;BME280;3928;42.626;23.382;2023-07-29T04:11:02;94089.22;;;19.47;64.08
7768;BME280;3928;42.626;23.382;2023-07-29T04:13:30;94075.69;;;19.24;64.48
7768;BME280;3928;42.626;23.382;2023-07-29T04:15:57;94092.66;;;19.32;65.35
7768;BME280;3928;42.626;23.382;2023-07-29T04:18:23;94095.25;;;19.32;65.13
7768;BME280;3928;42.626;23.382;2023-07-29T04:20:50;94095.44;;;19.44;64.80
7768;BME280;3928;42.626;23.382;2023-07-29T04:23:17;94095.09;;;19.35;65.05
7768;BME280;3928;42.626;23.382;2023-07-29T04:25:44;94097.50;;;19.38;65.11
7768;BME280;3928;42.626;23.382;2023-07-29T04:28:11;94033.44;;;18.88;64.80
7768;BME280;3928;42.626;23.382;2023-07-29T04:30:39;94093.81;;;19.26;64.90
7768;BME280;3928;42.626;23.382;2023-07-29T04:33:06;94088.97;;;19.36;64.70
7768;BME280;3928;42.626;23.382;2023-07-29T04:35:33;94068.22;;;19.18;64.71
7768;BME280;3928;42.626;23.382;2023-07-29T04:37:59;94085.78;;;19.31;65.04
7768;BME280;3928;42.626;23.382;2023-07-29T04:40:26;94096.44;;;19.42;65.11
7768;BME280;3928;42.626;23.382;2023-07-29T04:42:53;94092.56;;;19.49;64.88
7768;BME280;3928;42.626;23.382;2023-07-29T04:45:20;94095.47;;;19.60;63.82
7768;BME280;3928;42.626;23.382;2023-07-29T04:47:48;94098.97;;;19.75;63.70
7768;BME280;3928;42.626;23.382;2023-07-29T04:50:15;94065.44;;;19.53;63.65
7768;BME280;3928;42.626;23.382;2023-07-29T04:52:41;94099.16;;;19.72;64.18
7768;BME280;3928;42.626;23.382;2023-07-29T04:55:08;94099.53;;;19.96;63.64
7768;BME280;3928;42.626;23.382;2023-07-29T04:57:35;94102.22;;;20.10;63.21
7768;BME280;3928;42.626;23.382;2023-07-29T05:00:02;94101.72;;;20.33;62.51
7768;BME280;3928;42.626;23.382;2023-07-29T05:02:29;94080.94;;;20.48;62.22
7768;BME280;3928;42.626;23.382;2023-07-29T05:04:57;94117.72;;;20.87;61.47
7768;BME280;3928;42.626;23.382;2023-07-29T05:07:24;94098.72;;;21.14;60.80
7768;BME280;3928;42.626;23.382;2023-07-29T05:09:51;94117.94;;;21.41;60.40
7768;BME280;3928;42.626;23.382;2023-07-29T05:12:17;94109.50;;;21.65;59.35
7768;BME280;3928;42.626;23.382;2023-07-29T05:14:44;94108.78;;;21.89;58.65
7768;BME280;3928;42.626;23.382;2023-07-29T05:17:11;94114.25;;;22.13;57.87
7768;BME280;3928;42.626;23.382;2023-07-29T05:19:38;94114.97;;;22.30;57.06
7768;BME280;3928;42.626;23.382;2023-07-29T05:22:07;94123.31;;;22.35;55.62
7768;BME280;3928;42.626;23.382;2023-07-29T05:24:35;94120.88;;;22.19;55.63
7768;BME280;3928;42.626;23.382;2023-07-29T05:27:02;94120.25;;;22.01;55.64
7768;BME280;3928;42.626;23.382;2023-07-29T05:29:29;94123.25;;;21.95;55.57
7768;BME280;3928;42.626;23.382;2023-07-29T05:31:56;94125.91;;;21.81;56.69
7768;BME280;3928;42.626;23.382;2023-07-29T05:34:23;94128.56;;;21.67;56.91
7768;BME280;3928;42.626;23.382;2023-07-29T05:36:50;94131.03;;;21.82;56.94
7768;BME280;3928;42.626;23.382;2023-07-29T05:39:18;94133.50;;;21.98;56.81
7768;BME280;3928;42.626;23.382;2023-07-29T05:41:45;94129.09;;;22.13;56.66
7768;BME280;3928;42.626;23.382;2023-07-29T05:44:13;94073.47;;;21.84;56.26
7768;BME280;3928;42.626;23.382;2023-07-29T05:46:40;94135.38;;;22.10;57.03
7768;BME280;3928;42.626;23.382;2023-07-29T05:49:07;94134.88;;;22.18;56.62
7768;BME280;3928;42.626;23.382;2023-07-29T05:51:34;94141.97;;;22.43;56.14
7768;BME280;3928;42.626;23.382;2023-07-29T05:54:01;94133.03;;;22.72;55.49
7768;BME280;3928;42.626;23.382;2023-07-29T05:56:29;94136.88;;;23.07;53.97
7768;BME280;3928;42.626;23.382;2023-07-29T05:58:56;94126.50;;;23.30;53.28
7768;BME280;3928;42.626;23.382;2023-07-29T06:01:23;94120.53;;;23.41;51.51
7768;BME280;3928;42.626;23.382;2023-07-29T06:03:50;94137.16;;;23.53;51.13
7768;BME280;3928;42.626;23.382;2023-07-29T06:06:17;94141.56;;;23.65;51.31
7768;BME280;3928;42.626;23.382;2023-07-29T06:08:43;94141.13;;;23.84;51.22
7768;BME280;3928;42.626;23.382;2023-07-29T06:11:10;94129.53;;;23.99;50.13
7768;BME280;3928;42.626;23.382;2023-07-29T06:13:39;94134.31;;;24.18;50.07
7768;BME280;3928;42.626;23.382;2023-07-29T06:16:05;94140.53;;;24.41;49.60
7768;BME280;3928;42.626;23.382;2023-07-29T06:18:32;94132.66;;;24.65;50.06
7768;BME280;3928;42.626;23.382;2023-07-29T06:20:59;94131.53;;;24.91;48.32
7768;BME280;3928;42.626;23.382;2023-07-29T06:23:26;94127.19;;;25.14;47.99
7768;BME280;3928;42.626;23.382;2023-07-29T06:25:54;94121.34;;;25.33;47.47
7768;BME280;3928;42.626;23.382;2023-07-29T06:28:21;94121.84;;;25.27;46.58
7768;BME280;3928;42.626;23.382;2023-07-29T06:30:49;94130.00;;;25.00;46.74
7768;BME280;3928;42.626;23.382;2023-07-29T06:33:16;94120.88;;;25.17;46.55
7768;BME280;3928;42.626;23.382;2023-07-29T06:35:43;94116.84;;;25.35;46.42
7768;BME280;3928;42.626;23.382;2023-07-29T06:38:10;94121.34;;;25.44;45.89
7768;BME280;3928;42.626;23.382;2023-07-29T06:40:37;94113.25;;;25.58;45.92
7768;BME280;3928;42.626;23.382;2023-07-29T06:43:03;94113.16;;;25.71;43.27
7768;BME280;3928;42.626;23.382;2023-07-29T06:45:30;94109.88;;;25.67;43.13
7768;BME280;3928;42.626;23.382;2023-07-29T06:47:58;94107.03;;;25.93;44.08
7768;BME280;3928;42.626;23.382;2023-07-29T06:50:25;94107.31;;;26.22;43.80
7768;BME280;3928;42.626;23.382;2023-07-29T06:52:52;94094.00;;;26.46;43.53
7768;BME280;3928;42.626;23.382;2023-07-29T06:55:19;94102.38;;;26.72;41.94
7768;BME280;3928;42.626;23.382;2023-07-29T06:57:46;94100.00;;;26.90;41.60
7768;BME280;3928;42.626;23.382;2023-07-29T07:00:13;94105.88;;;27.14;40.94
7768;BME280;3928;42.626;23.382;2023-07-29T07:02:39;94096.38;;;27.32;40.22
7768;BME280;3928;42.626;23.382;2023-07-29T07:05:08;94100.75;;;27.43;40.81
7768;BME280;3928;42.626;23.382;2023-07-29T07:07:35;94110.81;;;27.59;40.84
7768;BME280;3928;42.626;23.382;2023-07-29T07:10:03;94102.31;;;27.76;40.27
7768;BME280;3928;42.626;23.382;2023-07-29T07:12:30;94095.69;;;27.91;40.32
7768;BME280;3928;42.626;23.382;2023-07-29T07:14:57;94099.75;;;28.15;39.94
7768;BME280;3928;42.626;23.382;2023-07-29T07:17:24;94104.00;;;28.37;40.59
7768;BME280;3928;42.626;23.382;2023-07-29T07:19:51;94109.00;;;28.59;40.07
7768;BME280;3928;42.626;23.382;2023-07-29T07:22:19;94099.53;;;28.76;39.33
7768;BME280;3928;42.626;23.382;2023-07-29T07:24:45;94104.47;;;28.90;38.66
7768;BME280;3928;42.626;23.382;2023-07-29T07:27:12;94107.19;;;28.98;38.76
7768;BME280;3928;42.626;23.382;2023-07-29T07:29:39;94098.84;;;29.12;38.42
7768;BME280;3928;42.626;23.382;2023-07-29T07:32:06;94090.75;;;29.24;38.06
7768;BME280;3928;42.626;23.382;2023-07-29T07:34:33;94087.84;;;29.17;37.40
7768;BME280;3928;42.626;23.382;2023-07-29T07:37:00;94102.69;;;29.37;37.69
7768;BME280;3928;42.626;23.382;2023-07-29T07:39:28;94082.03;;;29.14;36.67
7768;BME280;3928;42.626;23.382;2023-07-29T07:41:55;94099.38;;;29.26;37.16
7768;BME280;3928;42.626;23.382;2023-07-29T07:44:22;94104.06;;;29.41;37.23
7768;BME280;3928;42.626;23.382;2023-07-29T07:46:51;94093.34;;;29.43;36.83
7768;BME280;3928;42.626;23.382;2023-07-29T07:49:18;94100.97;;;29.56;35.96
7768;BME280;3928;42.626;23.382;2023-07-29T07:51:45;94102.63;;;29.57;36.64
7768;BME280;3928;42.626;23.382;2023-07-29T07:54:12;94098.13;;;29.77;37.31
7768;BME280;3928;42.626;23.382;2023-07-29T07:56:40;94091.66;;;29.89;36.45
7768;BME280;3928;42.626;23.382;2023-07-29T07:59:07;94105.06;;;30.05;35.67
7768;BME280;3928;42.626;23.382;2023-07-29T08:01:34;94094.94;;;30.01;35.04
7768;BME280;3928;42.626;23.382;2023-07-29T08:04:02;94101.81;;;30.21;35.76
7768;BME280;3928;42.626;23.382;2023-07-29T08:06:28;94102.50;;;30.41;36.18
7768;BME280;3928;42.626;23.382;2023-07-29T08:08:55;94104.34;;;30.58;34.69
7768;BME280;3928;42.626;23.382;2023-07-29T08:11:22;94090.00;;;30.78;34.80
7768;BME280;3928;42.626;23.382;2023-07-29T08:13:51;94100.31;;;31.07;34.36
7768;BME280;3928;42.626;23.382;2023-07-29T08:16:17;94103.03;;;31.16;33.57
7768;BME280;3928;42.626;23.382;2023-07-29T08:18:44;94097.56;;;31.35;33.53
7768;BME280;3928;42.626;23.382;2023-07-29T08:21:12;94100.41;;;31.41;33.15
7768;BME280;3928;42.626;23.382;2023-07-29T08:23:39;94106.47;;;31.60;33.01
7768;BME280;3928;42.626;23.382;2023-07-29T08:26:06;94108.69;;;31.64;31.81
7768;BME280;3928;42.626;23.382;2023-07-29T08:28:35;94100.88;;;31.63;32.50
7768;BME280;3928;42.626;23.382;2023-07-29T08:31:05;94106.19;;;31.63;32.56
7768;BME280;3928;42.626;23.382;2023-07-29T08:33:32;94098.41;;;31.69;32.85
7768;BME280;3928;42.626;23.382;2023-07-29T08:36:00;94097.81;;;31.76;32.18
7768;BME280;3928;42.626;23.382;2023-07-29T08:38:26;94088.59;;;31.88;32.62
7768;BME280;3928;42.626;23.382;2023-07-29T08:40:58;94106.44;;;32.12;30.88
7768;BME280;3928;42.626;23.382;2023-07-29T08:43:29;94092.22;;;32.29;30.99
7768;BME280;3928;42.626;23.382;2023-07-29T08:45:57;94079.91;;;32.28;30.69
7768;BME280;3928;42.626;23.382;2023-07-29T08:48:32;94092.94;;;32.55;30.02
7768;BME280;3928;42.626;23.382;2023-07-29T08:51:00;94089.28;;;32.40;29.81
7768;BME280;3928;42.626;23.382;2023-07-29T08:53:27;94085.19;;;32.12;29.91
7768;BME280;3928;42.626;23.382;2023-07-29T08:55:55;94078.03;;;32.04;30.30
7768;BME280;3928;42.626;23.382;2023-07-29T08:58:23;94078.25;;;32.27;30.40
7768;BME280;3928;42.626;23.382;2023-07-29T09:00:51;94079.34;;;32.50;29.91
7768;BME280;3928;42.626;23.382;2023-07-29T09:03:18;94074.38;;;32.64;29.53
7768;BME280;3928;42.626;23.382;2023-07-29T09:05:46;94076.59;;;32.93;29.63
7768;BME280;3928;42.626;23.382;2023-07-29T09:08:13;94072.09;;;33.18;28.95
7768;BME280;3928;42.626;23.382;2023-07-29T09:10:40;94063.41;;;33.32;28.99
7768;BME280;3928;42.626;23.382;2023-07-29T09:13:07;94072.38;;;33.55;28.92
7768;BME280;3928;42.626;23.382;2023-07-29T09:15:34;94072.28;;;33.80;28.35
7768;BME280;3928;42.626;23.382;2023-07-29T09:18:09;94067.09;;;33.39;27.32
7768;BME280;3928;42.626;23.382;2023-07-29T09:20:36;94069.06;;;33.45;27.76
7768;BME280;3928;42.626;23.382;2023-07-29T09:23:07;94061.16;;;33.76;28.15
7768;BME280;3928;42.626;23.382;2023-07-29T09:25:34;94060.91;;;34.02;26.65
7768;BME280;3928;42.626;23.382;2023-07-29T09:28:07;94056.94;;;34.29;27.05
7768;BME280;3928;42.626;23.382;2023-07-29T09:30:34;94056.84;;;34.45;26.15
7768;BME280;3928;42.626;23.382;2023-07-29T09:33:00;94031.63;;;34.56;25.37
7768;BME280;3928;42.626;23.382;2023-07-29T09:35:29;94052.38;;;34.92;25.77
7768;BME280;3928;42.626;23.382;2023-07-29T09:37:56;94046.03;;;34.93;24.82
7768;BME280;3928;42.626;23.382;2023-07-29T09:40:25;94053.97;;;35.01;25.20
7768;BME280;3928;42.626;23.382;2023-07-29T09:42:52;94055.19;;;35.13;24.94
7768;BME280;3928;42.626;23.382;2023-07-29T09:45:20;94049.72;;;35.29;24.64
7768;BME280;3928;42.626;23.382;2023-07-29T09:47:47;94054.19;;;35.52;24.32
7768;BME280;3928;42.626;23.382;2023-07-29T09:50:14;94052.72;;;35.64;23.35
7768;BME280;3928;42.626;23.382;2023-07-29T09:52:41;94034.31;;;35.54;23.49
7768;BME280;3928;42.626;23.382;2023-07-29T09:55:10;94041.69;;;35.67;23.50
7768;BME280;3928;42.626;23.382;2023-07-29T09:57:39;94040.13;;;35.20;22.63
7768;BME280;3928;42.626;23.382;2023-07-29T10:00:06;94040.94;;;34.83;23.51
7768;BME280;3928;42.626;23.382;2023-07-29T10:02:37;94036.97;;;35.02;23.69
7768;BME280;3928;42.626;23.382;2023-07-29T10:05:06;94027.69;;;35.12;24.54
7768;BME280;3928;42.626;23.382;2023-07-29T10:07:33;94025.16;;;35.19;22.95
7768;BME280;3928;42.626;23.382;2023-07-29T10:10:02;94029.41;;;34.91;22.84
7768;BME280;3928;42.626;23.382;2023-07-29T10:12:31;94027.94;;;34.80;23.56
7768;BME280;3928;42.626;23.382;2023-07-29T10:15:01;94030.75;;;34.33;24.09
7768;BME280;3928;42.626;23.382;2023-07-29T10:17:29;94022.72;;;34.49;24.62
7768;BME280;3928;42.626;23.382;2023-07-29T10:19:57;94021.88;;;34.71;24.40
7768;BME280;3928;42.626;23.382;2023-07-29T10:22:27;94022.56;;;35.11;24.14
7768;BME280;3928;42.626;23.382;2023-07-29T10:24:57;94006.88;;;35.45;23.96
7768;BME280;3928;42.626;23.382;2023-07-29T10:27:27;94003.94;;;35.70;22.05
7768;BME280;3928;42.626;23.382;2023-07-29T10:29:55;94010.72;;;35.87;23.38
7768;BME280;3928;42.626;23.382;2023-07-29T10:32:25;94004.44;;;36.10;22.41
7768;BME280;3928;42.626;23.382;2023-07-29T10:34:53;94001.72;;;36.39;22.59
7768;BME280;3928;42.626;23.382;2023-07-29T10:37:20;93998.03;;;36.62;22.37
7768;BME280;3928;42.626;23.382;2023-07-29T10:39:52;93996.63;;;36.87;22.23
7768;BME280;3928;42.626;23.382;2023-07-29T10:42:20;93991.38;;;37.00;21.94
7768;BME280;3928;42.626;23.382;2023-07-29T10:44:51;93899.72;;;36.64;21.82
7768;BME280;3928;42.626;23.382;2023-07-29T10:47:24;93989.41;;;37.37;20.59
7768;BME280;3928;42.626;23.382;2023-07-29T10:49:54;93983.56;;;37.55;22.02
7768;BME280;3928;42.626;23.382;2023-07-29T10:52:39;93979.03;;;37.62;21.40
7768;BME280;3928;42.626;23.382;2023-07-29T10:55:28;93982.88;;;37.81;20.52
7768;BME280;3928;42.626;23.382;2023-07-29T10:58:07;93980.00;;;37.82;20.60
7768;BME280;3928;42.626;23.382;2023-07-29T11:00:34;93976.13;;;37.91;21.77
7768;BME280;3928;42.626;23.382;2023-07-29T11:03:04;93974.53;;;38.10;21.41
7768;BME280;3928;42.626;23.382;2023-07-29T11:05:49;93972.72;;;38.17;21.14
7768;BME280;3928;42.626;23.382;2023-07-29T11:08:21;93965.66;;;38.03;20.24
7768;BME280;3928;42.626;23.382;2023-07-29T11:10:58;93971.47;;;38.13;21.97
7768;BME280;3928;42.626;23.382;2023-07-29T11:13:28;93965.69;;;38.16;20.75
7768;BME280;3928;42.626;23.382;2023-07-29T11:15:55;93959.78;;;38.27;21.37
7768;BME280;3928;42.626;23.382;2023-07-29T11:18:28;93957.53;;;38.38;20.68
7768;BME280;3928;42.626;23.382;2023-07-29T11:20:56;93953.22;;;38.37;19.16
7768;BME280;3928;42.626;23.382;2023-07-29T11:23:41;93955.88;;;38.37;21.30
7768;BME280;3928;42.626;23.382;2023-07-29T11:26:07;93961.34;;;38.09;19.33
7768;BME280;3928;42.626;23.382;2023-07-29T11:28:38;93960.72;;;37.59;19.96
7768;BME280;3928;42.626;23.382;2023-07-29T11:31:05;93955.75;;;37.62;21.35
7768;BME280;3928;42.626;23.382;2023-07-29T11:33:33;93949.22;;;37.71;20.85
7768;BME280;3928;42.626;23.382;2023-07-29T11:36:01;93958.34;;;37.77;20.84
7768;BME280;3928;42.626;23.382;2023-07-29T11:38:29;93946.22;;;37.81;20.39
7768;BME280;3928;42.626;23.382;2023-07-29T11:41:02;93941.88;;;37.87;20.30
7768;BME280;3928;42.626;23.382;2023-07-29T11:43:29;93944.19;;;37.90;21.15
7768;BME280;3928;42.626;23.382;2023-07-29T11:45:56;93944.19;;;37.90;21.60
7768;BME280;3928;42.626;23.382;2023-07-29T11:48:33;93939.22;;;37.87;22.60
7768;BME280;3928;42.626;23.382;2023-07-29T11:51:00;93939.31;;;38.13;20.60
7768;BME280;3928;42.626;23.382;2023-07-29T11:53:28;93931.94;;;38.28;20.46
7768;BME280;3928;42.626;23.382;2023-07-29T11:55:56;93932.38;;;38.52;20.68
7768;BME280;3928;42.626;23.382;2023-07-29T11:58:23;93909.28;;;38.51;20.41
7768;BME280;3928;42.626;23.382;2023-07-29T12:00:51;93927.22;;;38.50;18.79
7768;BME280;3928;42.626;23.382;2023-07-29T12:03:18;93933.13;;;38.13;19.99
7768;BME280;3928;42.626;23.382;2023-07-29T12:05:47;93933.56;;;38.23;20.29
7768;BME280;3928;42.626;23.382;2023-07-29T12:08:14;93926.06;;;37.98;20.00
7768;BME280;3928;42.626;23.382;2023-07-29T12:10:42;93924.25;;;37.64;20.36
7768;BME280;3928;42.626;23.382;2023-07-29T12:13:09;93914.75;;;37.21;19.95
7768;BME280;3928;42.626;23.382;2023-07-29T12:15:38;93919.09;;;37.22;20.26
7768;BME280;3928;42.626;23.382;2023-07-29T12:18:05;93916.88;;;36.97;20.83
7768;BME280;3928;42.626;23.382;2023-07-29T12:20:32;93907.09;;;37.17;22.96
7768;BME280;3928;42.626;23.382;2023-07-29T12:23:00;93895.97;;;37.42;21.03
7768;BME280;3928;42.626;23.382;2023-07-29T12:25:28;93904.16;;;37.82;21.45
7768;BME280;3928;42.626;23.382;2023-07-29T12:27:55;93903.03;;;38.17;22.46
7768;BME280;3928;42.626;23.382;2023-07-29T12:30:23;93896.28;;;38.41;22.11
7768;BME280;3928;42.626;23.382;2023-07-29T12:32:50;93899.22;;;38.73;20.98
7768;BME280;3928;42.626;23.382;2023-07-29T12:35:17;93849.44;;;38.64;20.67
7768;BME280;3928;42.626;23.382;2023-07-29T12:37:44;93894.41;;;39.01;20.64
7768;BME280;3928;42.626;23.382;2023-07-29T12:40:23;93898.53;;;39.17;20.72
7768;BME280;3928;42.626;23.382;2023-07-29T12:42:51;93902.22;;;39.36;19.40
7768;BME280;3928;42.626;23.382;2023-07-29T12:45:18;93899.88;;;39.53;20.11
7768;BME280;3928;42.626;23.382;2023-07-29T12:47:46;93895.94;;;39.62;20.57
7768;BME280;3928;42.626;23.382;2023-07-29T12:50:14;93894.03;;;39.75;19.29
7768;BME280;3928;42.626;23.382;2023-07-29T12:52:40;93900.56;;;39.93;19.38
7768;BME280;3928;42.626;23.382;2023-07-29T12:55:08;93904.53;;;39.84;18.52
7768;BME280;3928;42.626;23.382;2023-07-29T12:57:41;93895.94;;;39.62;18.85
7768;BME280;3928;42.626;23.382;2023-07-29T13:00:09;93892.47;;;39.48;18.81
7768;BME280;3928;42.626;23.382;2023-07-29T13:02:36;93850.38;;;39.35;20.24
7768;BME280;3928;42.626;23.382;2023-07-29T13:05:02;93896.34;;;39.65;18.45
7768;BME280;3928;42.626;23.382;2023-07-29T13:07:29;93893.28;;;39.48;19.02
7768;BME280;3928;42.626;23.382;2023-07-29T13:09:56;93887.75;;;39.30;19.96
7768;BME280;3928;42.626;23.382;2023-07-29T13:12:23;93889.84;;;39.28;19.12
7768;BME280;3928;42.626;23.382;2023-07-29T13:14:52;93894.97;;;39.36;19.79